Time;durP1;ratioP1;P1;durP2;ratioP2;P2;SDS_P1;SDS_P2;PMS_P1;PMS_P2;Temp;Humidity;BMP_temperature;BMP_pressure;BME280_temperature;BME280_humidity;BME280_pressure;Samples;Min_cycle;Max_cycle;Signal;HPM_P1;HPM_P2
2023/10/04 00:00:59;;;;;;;5.13;1.30;;;14.90;99.90;;;;;;5067267;28;20107;-68
2023/10/04 00:03:28;;;;;;;4.10;1.45;;;14.90;99.90;;;;;;5059339;28;20077;-68
2023/10/04 00:05:54;;;;;;;5.75;1.95;;;14.80;99.90;;;;;;5068121;28;20040;-68
2023/10/04 00:08:23;;;;;;;5.32;1.38;;;14.80;99.90;;;;;;5068263;28;20037;-67
2023/10/04 00:10:50;;;;;;;2.72;1.73;;;14.80;99.90;;;;;;5067372;28;20122;-67
2023/10/04 00:13:15;;;;;;;10.05;1.67;;;14.80;99.90;;;;;;5067791;28;20033;-67
2023/10/04 00:15:41;;;;;;;6.93;1.70;;;14.80;99.90;;;;;;5068193;28;20034;-67
2023/10/04 00:18:08;;;;;;;6.97;1.45;;;14.80;99.90;;;;;;5067743;28;20036;-67
2023/10/04 00:20:34;;;;;;;4.65;1.40;;;14.70;99.90;;;;;;5065495;28;20085;-67
2023/10/04 00:23:04;;;;;;;11.27;1.67;;;14.60;99.90;;;;;;5066038;28;20055;-68
2023/10/04 00:25:30;;;;;;;7.22;1.35;;;14.70;99.90;;;;;;5067613;28;20530;-68
2023/10/04 00:27:56;;;;;;;5.28;1.58;;;14.60;99.90;;;;;;5067586;28;20795;-67
2023/10/04 00:30:25;;;;;;;6.85;1.63;;;14.60;99.90;;;;;;5067677;28;20040;-68
2023/10/04 00:32:53;;;;;;;5.32;1.48;;;14.60;99.90;;;;;;5065824;28;20041;-67
2023/10/04 00:35:19;;;;;;;7.63;1.90;;;14.60;99.90;;;;;;5066272;28;20123;-67
2023/10/04 00:38:00;;;;;;;9.30;1.77;;;14.70;99.90;;;;;;5066073;28;20048;-67
2023/10/04 00:40:27;;;;;;;3.63;1.55;;;14.60;99.90;;;;;;5059178;28;20032;-67
2023/10/04 00:42:56;;;;;;;5.65;1.48;;;14.60;99.90;;;;;;5062010;28;20036;-67
2023/10/04 00:45:24;;;;;;;7.32;1.55;;;14.60;99.90;;;;;;5065899;28;20032;-67
2023/10/04 00:47:57;;;;;;;8.20;1.60;;;14.50;99.90;;;;;;5065617;28;20383;-67
2023/10/04 00:50:26;;;;;;;7.70;1.70;;;14.60;99.90;;;;;;5067113;28;20116;-68
2023/10/04 00:53:08;;;;;;;4.80;1.25;;;14.50;99.90;;;;;;5066879;28;20033;-67
2023/10/04 00:55:35;;;;;;;3.72;1.48;;;14.50;99.90;;;;;;5058616;28;20033;-67
2023/10/04 00:58:06;;;;;;;10.85;1.60;;;14.50;99.90;;;;;;5067360;28;20043;-67
2023/10/04 01:00:33;;;;;;;6.10;1.50;;;14.40;99.90;;;;;;5067823;28;20041;-67
2023/10/04 01:02:59;;;;;;;5.18;1.80;;;14.40;99.90;;;;;;5067007;28;20119;-68
2023/10/04 01:05:27;;;;;;;4.13;1.50;;;14.40;99.90;;;;;;5065081;28;20024;-67
2023/10/04 01:07:57;;;;;;;5.65;1.15;;;14.40;99.90;;;;;;5065367;28;20075;-67
2023/10/04 01:10:31;;;;;;;5.25;1.35;;;14.40;99.90;;;;;;5066627;28;20031;-67
2023/10/04 01:12:57;;;;;;;5.10;2.20;;;14.40;99.90;;;;;;5065904;28;20073;-67
2023/10/04 01:17:56;;;;;;;4.95;1.73;;;14.40;99.90;;;;;;5066694;28;20033;-67
2023/10/04 01:20:27;;;;;;;4.65;1.95;;;14.30;99.90;;;;;;5065315;28;20024;-67
2023/10/04 01:23:00;;;;;;;4.25;1.83;;;14.30;99.90;;;;;;5064570;28;20439;-67
2023/10/04 01:25:31;;;;;;;8.38;1.63;;;14.30;99.90;;;;;;5058149;28;20036;-67
2023/10/04 01:28:00;;;;;;;3.00;1.27;;;14.30;99.90;;;;;;5066566;28;20040;-67
2023/10/04 01:30:26;;;;;;;6.85;1.42;;;14.20;99.90;;;;;;5063449;28;20492;-67
2023/10/04 01:32:53;;;;;;;4.43;1.60;;;14.30;99.90;;;;;;5061432;28;20036;-67
2023/10/04 01:35:23;;;;;;;7.00;2.10;;;14.30;99.90;;;;;;5066492;28;20115;-67
2023/10/04 01:37:52;;;;;;;7.82;1.70;;;14.30;99.90;;;;;;5066655;28;20408;-67
2023/10/04 01:40:19;;;;;;;10.60;1.98;;;14.30;99.90;;;;;;5066320;28;20403;-68
2023/10/04 01:42:45;;;;;;;6.32;2.22;;;14.20;99.90;;;;;;5066372;28;20032;-67
2023/10/04 01:45:15;;;;;;;7.07;1.60;;;14.20;99.90;;;;;;5066774;28;20048;-67
2023/10/04 01:47:41;;;;;;;3.90;1.40;;;14.20;99.90;;;;;;5066176;28;20131;-67
2023/10/04 01:50:11;;;;;;;6.25;1.75;;;14.20;99.90;;;;;;5066368;28;20059;-67
2023/10/04 01:52:39;;;;;;;6.47;1.65;;;14.30;99.90;;;;;;5066139;28;20024;-67
2023/10/04 01:55:06;;;;;;;5.28;1.60;;;14.30;99.90;;;;;;5065570;28;20543;-67
2023/10/04 01:57:34;;;;;;;5.43;1.55;;;14.30;99.90;;;;;;5066460;28;20025;-67
2023/10/04 02:00:01;;;;;;;6.78;1.80;;;14.20;99.90;;;;;;5064531;28;20419;-67
2023/10/04 02:02:27;;;;;;;6.95;1.98;;;14.10;99.90;;;;;;5064275;28;20385;-66
2023/10/04 02:04:54;;;;;;;5.65;1.98;;;14.10;99.90;;;;;;5064575;28;20033;-67
2023/10/04 02:07:23;;;;;;;7.47;1.92;;;14.10;99.90;;;;;;5066081;28;20036;-67
2023/10/04 02:09:51;;;;;;;6.03;1.92;;;14.10;99.90;;;;;;5054088;28;20033;-67
2023/10/04 02:12:22;;;;;;;4.65;2.20;;;14.10;99.90;;;;;;5064025;28;20519;-69
2023/10/04 02:14:48;;;;;;;5.68;2.03;;;14.10;99.90;;;;;;5064035;28;20032;-67
2023/10/04 02:17:18;;;;;;;9.02;2.30;;;14.10;99.90;;;;;;5065634;28;20732;-67
2023/10/04 02:19:44;;;;;;;7.50;2.05;;;14.20;99.90;;;;;;5064013;28;20040;-67
2023/10/04 02:22:10;;;;;;;4.88;2.15;;;14.10;99.90;;;;;;5063663;28;20040;-67
2023/10/04 02:24:40;;;;;;;4.95;2.38;;;14.00;99.90;;;;;;5065377;28;20040;-67
2023/10/04 02:27:08;;;;;;;5.45;2.63;;;13.90;99.90;;;;;;5064171;28;20054;-67
2023/10/04 02:29:38;;;;;;;4.75;2.67;;;13.90;99.90;;;;;;5063999;28;20036;-67
2023/10/04 02:32:11;;;;;;;7.78;2.50;;;13.90;99.90;;;;;;5065290;28;20028;-67
2023/10/04 02:34:38;;;;;;;5.55;2.53;;;14.00;99.90;;;;;;5060579;28;20033;-67
2023/10/04 02:37:07;;;;;;;4.70;2.40;;;14.00;99.90;;;;;;5062767;28;20119;-67
2023/10/04 02:39:37;;;;;;;8.52;3.00;;;14.10;99.90;;;;;;5064704;28;20132;-67
2023/10/04 02:42:09;;;;;;;6.82;3.00;;;14.10;99.90;;;;;;5063623;28;20685;-67
2023/10/04 02:44:39;;;;;;;3.35;2.42;;;14.20;99.90;;;;;;5064871;28;20035;-67
2023/10/04 02:47:08;;;;;;;6.72;2.83;;;14.20;99.90;;;;;;5063532;28;20712;-67
2023/10/04 02:49:38;;;;;;;8.60;3.28;;;14.20;99.90;;;;;;5062703;28;20068;-67
2023/10/04 02:52:07;;;;;;;4.93;2.85;;;14.20;99.90;;;;;;5063033;28;20039;-67
2023/10/04 02:54:34;;;;;;;8.48;3.40;;;14.10;99.90;;;;;;5062855;28;20619;-67
2023/10/04 02:57:03;;;;;;;7.47;2.95;;;14.10;99.90;;;;;;5063406;28;20109;-67
2023/10/04 02:59:32;;;;;;;6.25;2.80;;;14.10;99.90;;;;;;5063306;28;20434;-67
2023/10/04 03:02:00;;;;;;;6.95;3.00;;;14.10;99.90;;;;;;5062846;28;20033;-67
2023/10/04 03:04:26;;;;;;;6.05;2.92;;;14.10;99.90;;;;;;5063144;28;20111;-67
2023/10/04 03:06:53;;;;;;;6.38;3.08;;;14.00;99.90;;;;;;5063312;28;20135;-67
2023/10/04 03:09:19;;;;;;;11.27;3.22;;;14.00;99.90;;;;;;5063060;28;20098;-67
2023/10/04 03:11:45;;;;;;;9.57;2.67;;;14.10;99.90;;;;;;5064578;28;20800;-67
2023/10/04 03:14:12;;;;;;;5.93;2.70;;;14.00;99.90;;;;;;5063334;28;20035;-67
2023/10/04 03:16:42;;;;;;;4.05;3.05;;;14.00;99.90;;;;;;5063068;28;20518;-67
2023/10/04 03:19:10;;;;;;;9.48;2.97;;;14.00;99.90;;;;;;5063182;28;20103;-67
2023/10/04 03:21:44;;;;;;;9.55;2.90;;;14.00;99.90;;;;;;5060876;28;20029;-67
2023/10/04 03:24:10;;;;;;;6.95;3.08;;;14.00;99.90;;;;;;5062458;28;20124;-67
2023/10/04 03:26:37;;;;;;;5.60;2.90;;;14.00;99.90;;;;;;5063099;28;20025;-67
2023/10/04 03:29:04;;;;;;;8.48;3.25;;;14.00;99.90;;;;;;5063110;28;20032;-67
2023/10/04 03:31:33;;;;;;;9.98;3.00;;;14.00;99.90;;;;;;5062577;28;20070;-67
2023/10/04 03:34:00;;;;;;;12.20;3.55;;;14.10;99.90;;;;;;5063073;28;20515;-67
2023/10/04 03:36:29;;;;;;;5.90;3.10;;;14.10;99.90;;;;;;5069392;28;20024;-67
2023/10/04 03:39:01;;;;;;;6.25;2.80;;;14.10;99.90;;;;;;5069403;28;20029;-67
2023/10/04 03:41:28;;;;;;;4.90;2.90;;;14.10;99.90;;;;;;5069096;28;20406;-67
2023/10/04 03:44:00;;;;;;;4.65;2.42;;;14.10;99.90;;;;;;5069553;28;20571;-67
2023/10/04 03:46:26;;;;;;;6.53;2.47;;;14.10;99.90;;;;;;5069209;28;20035;-67
2023/10/04 03:48:58;;;;;;;6.13;2.60;;;14.10;99.90;;;;;;5069480;28;20119;-67
2023/10/04 03:51:25;;;;;;;7.28;2.70;;;14.10;99.90;;;;;;5069815;28;20275;-67
2023/10/04 03:53:56;;;;;;;7.20;2.55;;;14.10;99.90;;;;;;5069196;28;20124;-67
2023/10/04 03:56:25;;;;;;;7.47;2.88;;;14.10;99.90;;;;;;5049157;28;20025;-67
2023/10/04 03:58:51;;;;;;;8.23;3.13;;;14.10;99.90;;;;;;5064597;28;20496;-67
2023/10/04 04:01:19;;;;;;;4.30;2.50;;;14.00;99.90;;;;;;5067811;28;20071;-67
2023/10/04 04:03:44;;;;;;;9.10;2.67;;;14.00;99.90;;;;;;5069512;28;20466;-67
2023/10/04 04:06:11;;;;;;;5.68;2.72;;;14.00;99.90;;;;;;5071024;28;20052;-67
2023/10/04 04:08:37;;;;;;;5.82;2.38;;;14.00;99.90;;;;;;5069055;28;20032;-67
2023/10/04 04:11:05;;;;;;;6.13;2.72;;;14.00;99.90;;;;;;5070427;28;20581;-67
2023/10/04 04:13:33;;;;;;;4.25;2.42;;;13.90;99.90;;;;;;5068921;28;20063;-67
2023/10/04 04:15:59;;;;;;;5.80;2.38;;;14.00;99.90;;;;;;5068933;28;20129;-67
2023/10/04 04:18:29;;;;;;;4.97;2.88;;;14.00;99.90;;;;;;5070641;28;20125;-67
2023/10/04 04:20:57;;;;;;;4.00;2.05;;;14.00;99.90;;;;;;5069393;28;20048;-67
2023/10/04 04:23:25;;;;;;;4.28;2.10;;;14.00;99.90;;;;;;5068792;28;20028;-67
2023/10/04 04:25:51;;;;;;;4.53;2.38;;;14.00;99.90;;;;;;5070600;28;20032;-67
2023/10/04 04:28:18;;;;;;;5.50;2.33;;;14.00;99.90;;;;;;5069160;28;20105;-67
2023/10/04 04:30:46;;;;;;;4.15;2.17;;;14.00;99.90;;;;;;5068976;28;20024;-67
2023/10/04 04:33:16;;;;;;;3.60;2.22;;;13.90;99.90;;;;;;5068978;28;20373;-67
2023/10/04 04:35:47;;;;;;;4.47;2.00;;;14.00;99.90;;;;;;5069317;28;20025;-67
2023/10/04 04:38:17;;;;;;;10.30;2.70;;;14.00;99.90;;;;;;5068897;28;20594;-67
2023/10/04 04:40:48;;;;;;;3.72;2.03;;;14.00;99.90;;;;;;5069254;28;20032;-67
2023/10/04 04:43:25;;;;;;;4.28;2.20;;;14.00;99.90;;;;;;5069297;28;20431;-67
2023/10/04 04:45:58;;;;;;;3.67;1.83;;;14.00;99.90;;;;;;5067608;28;20035;-68
2023/10/04 04:48:31;;;;;;;6.93;2.10;;;14.10;99.90;;;;;;5066137;28;20040;-67
2023/10/04 04:51:18;;;;;;;6.80;2.42;;;14.10;99.90;;;;;;5065331;28;20043;-67
2023/10/04 04:53:47;;;;;;;4.20;1.63;;;14.10;99.90;;;;;;5052209;28;20077;-67
2023/10/04 04:56:18;;;;;;;4.68;2.03;;;14.10;99.90;;;;;;5065783;28;20032;-67
2023/10/04 04:58:47;;;;;;;6.22;1.98;;;14.10;99.90;;;;;;5065614;28;20056;-67
2023/10/04 05:01:14;;;;;;;4.22;2.05;;;14.10;99.90;;;;;;5066614;28;20036;-67
2023/10/04 05:03:47;;;;;;;10.13;2.05;;;14.10;99.90;;;;;;5065261;28;20067;-67
2023/10/04 05:06:16;;;;;;;4.57;1.88;;;14.00;99.90;;;;;;5065391;28;20033;-67
2023/10/04 05:08:42;;;;;;;4.20;1.73;;;14.00;99.90;;;;;;5066908;28;20040;-67
2023/10/04 05:11:09;;;;;;;4.00;1.92;;;14.00;99.90;;;;;;5066140;28;20029;-67
2023/10/04 05:13:36;;;;;;;5.72;2.10;;;14.00;99.90;;;;;;5066298;28;20033;-67
2023/10/04 05:16:02;;;;;;;6.65;2.08;;;14.00;99.90;;;;;;5067062;28;20614;-67
2023/10/04 05:18:28;;;;;;;6.00;1.48;;;14.00;99.90;;;;;;5050241;28;20032;-67
2023/10/04 05:20:54;;;;;;;5.18;2.03;;;14.00;99.90;;;;;;5066307;28;20040;-67
2023/10/04 05:23:25;;;;;;;5.30;1.88;;;14.00;99.90;;;;;;5066129;28;20136;-67
2023/10/04 05:25:55;;;;;;;6.47;2.00;;;14.00;99.90;;;;;;5067144;28;20696;-67
2023/10/04 05:28:22;;;;;;;6.63;2.22;;;14.00;99.90;;;;;;5066811;28;20200;-67
2023/10/04 05:30:48;;;;;;;5.50;1.85;;;14.00;99.90;;;;;;5066692;28;20048;-67
2023/10/04 05:33:16;;;;;;;4.97;1.63;;;14.10;99.90;;;;;;5065877;28;20472;-67
2023/10/04 05:35:44;;;;;;;4.32;1.75;;;14.00;99.90;;;;;;5066395;28;20036;-67
2023/10/04 05:38:17;;;;;;;5.47;2.00;;;13.90;99.90;;;;;;5065261;28;20927;-67
2023/10/04 05:40:44;;;;;;;6.65;1.90;;;13.90;99.90;;;;;;5066480;28;20438;-67
2023/10/04 05:43:12;;;;;;;7.57;2.13;;;13.90;99.90;;;;;;5066198;28;20035;-67
2023/10/04 05:45:38;;;;;;;4.65;1.77;;;13.80;99.90;;;;;;5066225;28;20043;-67
2023/10/04 05:48:05;;;;;;;7.80;1.98;;;13.80;99.90;;;;;;5066250;28;20036;-67
2023/10/04 05:50:34;;;;;;;3.85;1.90;;;13.90;99.90;;;;;;5066198;28;20060;-67
2023/10/04 05:53:05;;;;;;;4.43;1.70;;;13.80;99.90;;;;;;5065557;28;20060;-67
2023/10/04 05:55:35;;;;;;;4.93;1.90;;;13.90;99.90;;;;;;5058350;28;20024;-67
2023/10/04 05:58:09;;;;;;;5.15;1.95;;;13.90;99.90;;;;;;5065661;28;20504;-67
2023/10/04 06:00:42;;;;;;;3.03;1.77;;;14.00;99.90;;;;;;5066257;28;20116;-67
2023/10/04 06:03:13;;;;;;;5.38;1.80;;;14.00;99.90;;;;;;5065568;28;20485;-67
2023/10/04 06:05:42;;;;;;;5.57;1.83;;;14.10;99.90;;;;;;5065586;28;20035;-67
2023/10/04 06:08:18;;;;;;;3.30;2.03;;;14.20;99.90;;;;;;5065940;28;20036;-67
2023/10/04 06:10:46;;;;;;;6.13;2.17;;;14.20;99.90;;;;;;5065883;28;20526;-67
2023/10/04 06:13:12;;;;;;;6.00;1.90;;;14.30;99.90;;;;;;5063646;28;20124;-67
2023/10/04 06:15:42;;;;;;;6.82;2.00;;;14.30;99.90;;;;;;5066138;28;20028;-67
2023/10/04 06:18:09;;;;;;;9.65;2.40;;;14.30;99.90;;;;;;5065853;28;20040;-67
2023/10/04 06:20:36;;;;;;;5.20;2.22;;;14.20;99.90;;;;;;5065485;28;20062;-67
2023/10/04 06:23:06;;;;;;;10.93;1.85;;;14.20;99.90;;;;;;5065269;28;20040;-66
2023/10/04 06:25:45;;;;;;;6.90;1.80;;;14.20;99.90;;;;;;5056130;28;20040;-67
2023/10/04 06:28:12;;;;;;;2.63;1.52;;;14.30;99.90;;;;;;5060850;28;20773;-67
2023/10/04 06:30:38;;;;;;;6.35;1.85;;;14.40;99.90;;;;;;5058486;28;20035;-67
2023/10/04 06:33:06;;;;;;;4.55;1.77;;;14.40;99.90;;;;;;5064698;28;20024;-67
2023/10/04 06:35:32;;;;;;;8.82;2.15;;;14.40;99.90;;;;;;5065064;28;20048;-67
2023/10/04 06:38:00;;;;;;;4.68;1.80;;;14.50;99.90;;;;;;5065557;28;20032;-67
2023/10/04 06:40:30;;;;;;;6.30;2.13;;;14.50;99.90;;;;;;5065126;28;20509;-67
2023/10/04 06:42:55;;;;;;;8.55;2.58;;;14.60;99.90;;;;;;5064451;28;20535;-67
2023/10/04 06:45:24;;;;;;;5.05;1.67;;;14.60;99.90;;;;;;5065195;28;20048;-67
2023/10/04 06:47:53;;;;;;;3.85;1.73;;;14.60;99.90;;;;;;5065246;28;20115;-67
2023/10/04 06:50:21;;;;;;;8.95;2.22;;;14.50;99.90;;;;;;5065007;28;20074;-66
2023/10/04 06:52:51;;;;;;;4.53;1.60;;;14.50;99.90;;;;;;5065134;28;20477;-67
2023/10/04 06:55:19;;;;;;;6.10;2.00;;;14.60;99.90;;;;;;5065184;28;20032;-67
2023/10/04 06:57:46;;;;;;;5.50;2.17;;;14.60;99.90;;;;;;5064989;28;20040;-67
2023/10/04 07:00:15;;;;;;;4.63;1.70;;;14.70;99.90;;;;;;5065040;28;20048;-67
2023/10/04 07:03:01;;;;;;;7.10;2.10;;;14.70;99.90;;;;;;5063265;28;20044;-67
2023/10/04 07:05:35;;;;;;;6.30;2.30;;;14.80;99.90;;;;;;5064308;28;20032;-67
2023/10/04 07:08:03;;;;;;;4.55;2.30;;;14.80;99.90;;;;;;5064640;28;20048;-67
2023/10/04 07:10:29;;;;;;;7.47;2.10;;;14.90;99.90;;;;;;5047439;28;20040;-67
2023/10/04 07:12:59;;;;;;;6.22;1.92;;;14.90;99.90;;;;;;5064384;28;20799;-67
2023/10/04 07:15:36;;;;;;;4.03;1.58;;;14.90;99.90;;;;;;5064576;28;20036;-67
2023/10/04 07:18:09;;;;;;;7.85;2.00;;;14.90;99.90;;;;;;5064891;28;20048;-67
2023/10/04 07:20:36;;;;;;;5.45;1.77;;;15.00;99.90;;;;;;5057209;28;20590;-67
2023/10/04 07:23:03;;;;;;;6.15;2.42;;;15.10;99.90;;;;;;5064186;28;20032;-66
2023/10/04 07:25:31;;;;;;;4.43;1.67;;;15.20;99.90;;;;;;5064166;28;20036;-67
2023/10/04 07:28:02;;;;;;;4.32;1.95;;;15.20;99.90;;;;;;5064181;28;20043;-66
2023/10/04 07:30:29;;;;;;;3.30;1.90;;;15.30;99.90;;;;;;5056716;28;20036;-67
2023/10/04 07:32:57;;;;;;;3.78;1.83;;;15.40;99.90;;;;;;5064346;28;20047;-68
2023/10/04 07:35:25;;;;;;;8.50;1.75;;;15.50;99.90;;;;;;5064611;28;20048;-67
2023/10/04 07:37:52;;;;;;;8.95;1.70;;;15.40;99.90;;;;;;5064873;28;20066;-67
2023/10/04 07:40:20;;;;;;;5.40;1.75;;;15.50;99.90;;;;;;5064516;28;20147;-67
2023/10/04 07:42:46;;;;;;;9.30;1.80;;;15.60;99.90;;;;;;5064187;28;20028;-67
2023/10/04 07:45:13;;;;;;;4.13;1.88;;;15.60;99.90;;;;;;5064650;28;20044;-66
2023/10/04 07:47:43;;;;;;;7.35;2.00;;;15.60;99.90;;;;;;5064797;28;20028;-66
2023/10/04 07:50:15;;;;;;;9.25;2.28;;;15.70;99.90;;;;;;5060264;28;20078;-67
2023/10/04 07:52:44;;;;;;;7.93;2.40;;;15.70;99.90;;;;;;5062443;28;20036;-67
2023/10/04 07:55:17;;;;;;;8.35;2.47;;;15.70;99.90;;;;;;5064316;28;20116;-67
2023/10/04 07:57:48;;;;;;;4.85;1.77;;;15.70;99.90;;;;;;5064289;28;20591;-67
2023/10/04 08:00:15;;;;;;;7.97;2.47;;;15.80;99.90;;;;;;5042293;28;20117;-67
2023/10/04 08:02:50;;;;;;;6.82;2.10;;;15.90;99.90;;;;;;5062416;28;20770;-67
2023/10/04 08:05:23;;;;;;;5.68;2.10;;;16.00;99.90;;;;;;5064233;28;20046;-67
2023/10/04 08:07:50;;;;;;;10.43;3.05;;;16.20;99.90;;;;;;5064489;28;20733;-67
2023/10/04 08:10:25;;;;;;;6.00;2.03;;;16.30;99.90;;;;;;5063846;28;20032;-67
2023/10/04 08:13:01;;;;;;;8.25;2.13;;;16.40;99.90;;;;;;5063833;28;20115;-67
2023/10/04 08:15:30;;;;;;;10.43;2.33;;;16.50;99.90;;;;;;5064102;28;20706;-68
2023/10/04 08:17:58;;;;;;;6.97;1.95;;;16.60;99.90;;;;;;5055231;28;20037;-67
2023/10/04 08:20:29;;;;;;;8.82;2.20;;;16.70;99.90;;;;;;5060961;28;20040;-67
2023/10/04 08:22:59;;;;;;;7.90;2.67;;;16.50;99.90;;;;;;5066903;28;20448;-67
2023/10/04 08:25:27;;;;;;;3.70;1.75;;;16.40;99.60;;;;;;5067386;28;20543;-67
2023/10/04 08:27:53;;;;;;;7.18;2.40;;;16.40;99.90;;;;;;5067755;28;20044;-67
2023/10/04 08:30:20;;;;;;;7.57;1.73;;;16.40;99.80;;;;;;5067928;28;20036;-67
2023/10/04 08:32:50;;;;;;;6.43;2.40;;;16.40;99.90;;;;;;5064544;28;20028;-66
2023/10/04 08:35:24;;;;;;;10.45;3.28;;;16.50;99.90;;;;;;5063234;28;20032;-67
2023/10/04 08:37:53;;;;;;;7.43;2.40;;;16.60;99.90;;;;;;5062835;28;20472;-68
2023/10/04 08:40:20;;;;;;;6.25;2.03;;;16.70;99.90;;;;;;5065972;28;20078;-68
2023/10/04 08:42:53;;;;;;;6.22;2.25;;;16.80;99.90;;;;;;5067174;28;20071;-68
2023/10/04 08:45:19;;;;;;;7.72;2.30;;;17.00;99.90;;;;;;5067426;28;20125;-68
2023/10/04 08:47:50;;;;;;;5.70;2.35;;;17.10;99.70;;;;;;5067296;28;20048;-68
2023/10/04 08:50:43;;;;;;;7.28;1.88;;;17.30;99.40;;;;;;5067249;28;20040;-67
2023/10/04 08:53:17;;;;;;;9.73;2.25;;;17.30;98.80;;;;;;5061103;28;20044;-68
2023/10/04 08:55:53;;;;;;;4.78;1.75;;;17.30;98.90;;;;;;5067773;28;20337;-67
2023/10/04 08:58:20;;;;;;;4.50;1.70;;;17.30;99.00;;;;;;5067111;28;20028;-68
2023/10/04 09:00:48;;;;;;;5.03;1.63;;;17.50;99.20;;;;;;5064042;28;20032;-67
2023/10/04 09:03:15;;;;;;;7.88;2.40;;;17.60;98.60;;;;;;5066953;28;20033;-68
2023/10/04 09:05:46;;;;;;;9.85;1.80;;;17.80;97.90;;;;;;5067502;28;20040;-68
2023/10/04 09:08:14;;;;;;;7.15;2.13;;;17.80;97.40;;;;;;5067432;28;20476;-68
2023/10/04 09:10:41;;;;;;;7.32;2.13;;;17.80;97.30;;;;;;5067001;28;20077;-68
2023/10/04 09:13:09;;;;;;;5.55;2.10;;;17.80;97.90;;;;;;5065581;28;20033;-68
2023/10/04 09:15:35;;;;;;;5.03;1.65;;;17.80;98.20;;;;;;5063737;28;20103;-68
2023/10/04 09:18:04;;;;;;;14.98;6.15;;;17.80;97.70;;;;;;5066173;28;20048;-67
2023/10/04 09:20:31;;;;;;;14.30;5.90;;;17.80;97.30;;;;;;5061022;28;20769;-67
2023/10/04 09:23:00;;;;;;;24.42;11.15;;;17.80;97.40;;;;;;5065425;28;20036;-67
2023/10/04 09:25:39;;;;;;;13.55;6.20;;;17.80;97.40;;;;;;5065778;28;20074;-67
2023/10/04 09:28:08;;;;;;;6.10;2.03;;;17.90;97.10;;;;;;5063399;28;20112;-67
2023/10/04 09:30:36;;;;;;;7.88;1.80;;;17.80;97.20;;;;;;5060426;28;20041;-67
2023/10/04 09:33:09;;;;;;;6.93;1.90;;;17.70;97.20;;;;;;5062222;28;20064;-66
2023/10/04 09:35:43;;;;;;;8.27;2.25;;;17.80;97.70;;;;;;5063060;28;20039;-66
2023/10/04 09:38:22;;;;;;;8.55;2.17;;;17.80;97.60;;;;;;5062264;28;20412;-67
2023/10/04 09:40:55;;;;;;;5.57;1.85;;;17.90;97.30;;;;;;5066346;28;20048;-67
2023/10/04 09:43:37;;;;;;;6.65;1.90;;;17.90;96.80;;;;;;5066419;28;20120;-67
2023/10/04 09:46:06;;;;;;;10.20;1.77;;;17.90;97.20;;;;;;5066486;28;20137;-67
2023/10/04 09:48:33;;;;;;;7.80;1.73;;;18.00;96.90;;;;;;5062888;28;20053;-67
2023/10/04 09:51:01;;;;;;;5.90;2.10;;;17.90;96.80;;;;;;5066470;28;20024;-67
2023/10/04 09:53:28;;;;;;;4.63;1.92;;;17.90;97.30;;;;;;5065627;28;20071;-67
2023/10/04 09:55:56;;;;;;;6.47;2.10;;;17.90;97.30;;;;;;5064953;28;20032;-67
2023/10/04 09:58:24;;;;;;;5.82;1.88;;;18.00;97.30;;;;;;5065330;28;20043;-67
2023/10/04 10:00:53;;;;;;;5.85;2.13;;;18.10;97.40;;;;;;5065859;28;20079;-67
2023/10/04 10:03:25;;;;;;;5.63;1.80;;;18.10;96.40;;;;;;5065574;28;20082;-67
2023/10/04 10:05:56;;;;;;;6.68;1.75;;;18.10;96.20;;;;;;5066100;28;20052;-67
2023/10/04 10:08:25;;;;;;;7.68;2.00;;;17.90;96.10;;;;;;5064192;28;20041;-67
2023/10/04 10:10:52;;;;;;;8.80;1.77;;;17.90;96.50;;;;;;5065789;28;20482;-67
2023/10/04 10:13:19;;;;;;;5.13;1.75;;;18.00;96.80;;;;;;5065706;28;20025;-68
2023/10/04 10:15:46;;;;;;;4.25;1.60;;;18.00;96.60;;;;;;5065503;28;20685;-67
2023/10/04 10:18:13;;;;;;;5.45;1.83;;;18.20;96.50;;;;;;5066202;28;20128;-67
2023/10/04 10:20:39;;;;;;;5.95;1.80;;;18.40;95.30;;;;;;5066039;28;20033;-66
2023/10/04 10:23:10;;;;;;;4.85;2.00;;;18.40;94.60;;;;;;5058220;28;20031;-67
2023/10/04 10:25:38;;;;;;;8.68;2.05;;;18.50;94.80;;;;;;5065526;28;20392;-67
2023/10/04 10:28:20;;;;;;;5.45;2.03;;;18.50;94.70;;;;;;5065881;28;20865;-67
2023/10/04 10:30:45;;;;;;;7.45;2.00;;;18.50;95.10;;;;;;5065837;28;20671;-67
2023/10/04 10:33:12;;;;;;;5.10;1.65;;;18.50;95.30;;;;;;5065813;28;20071;-67
2023/10/04 10:35:52;;;;;;;4.03;1.95;;;18.40;94.60;;;;;;5066031;28;20115;-68
2023/10/04 10:38:28;;;;;;;16.52;2.65;;;18.40;94.70;;;;;;5063005;28;20031;-67
2023/10/04 10:40:54;;;;;;;5.47;1.95;;;18.70;95.00;;;;;;5065254;28;20127;-67
2023/10/04 10:43:19;;;;;;;5.55;1.40;;;19.20;94.20;;;;;;5065194;28;20189;-67
2023/10/04 10:45:46;;;;;;;3.85;1.60;;;19.40;92.60;;;;;;5064055;28;20040;-67
2023/10/04 10:48:12;;;;;;;3.20;1.40;;;19.50;92.60;;;;;;5065133;28;20044;-67
2023/10/04 10:50:41;;;;;;;5.30;1.90;;;19.50;92.80;;;;;;5064851;28;20514;-67
2023/10/04 10:53:10;;;;;;;5.38;2.08;;;19.40;93.00;;;;;;5057100;28;20055;-67
2023/10/04 10:55:38;;;;;;;7.25;1.63;;;19.30;92.90;;;;;;5064714;28;20041;-67
2023/10/04 10:58:05;;;;;;;6.97;2.00;;;19.00;92.10;;;;;;5064988;28;20043;-67
2023/10/04 11:00:34;;;;;;;7.03;1.77;;;18.90;92.60;;;;;;5064822;28;20048;-67
2023/10/04 11:03:01;;;;;;;6.10;1.67;;;18.80;93.10;;;;;;5063232;28;20147;-67
2023/10/04 11:05:27;;;;;;;6.53;1.55;;;18.60;93.40;;;;;;5064525;28;20020;-67
2023/10/04 11:07:54;;;;;;;6.60;1.67;;;18.50;94.40;;;;;;5064624;28;20066;-67
2023/10/04 11:10:23;;;;;;;3.97;1.77;;;18.40;94.70;;;;;;5063869;28;20115;-67
2023/10/04 11:13:03;;;;;;;4.50;1.90;;;18.10;94.60;;;;;;5060324;28;20058;-67
2023/10/04 11:15:29;;;;;;;13.43;2.00;;;18.00;95.60;;;;;;5062702;28;20125;-67
2023/10/04 11:17:55;;;;;;;5.03;1.85;;;17.90;95.70;;;;;;5064744;28;20037;-68
2023/10/04 11:20:21;;;;;;;5.50;1.90;;;18.00;96.00;;;;;;5064392;28;20032;-68
2023/10/04 11:22:49;;;;;;;6.38;2.33;;;18.00;95.50;;;;;;5054866;28;20127;-72
2023/10/04 11:25:16;;;;;;;7.82;2.28;;;17.90;95.90;;;;;;5059812;28;20807;-68
2023/10/04 11:27:44;;;;;;;5.43;1.77;;;18.00;95.60;;;;;;5056720;28;20567;-67
2023/10/04 11:30:12;;;;;;;5.60;1.92;;;18.00;95.80;;;;;;5063543;28;20102;-67
2023/10/04 11:32:39;;;;;;;3.45;1.73;;;18.10;95.30;;;;;;5063037;28;20503;-68
2023/10/04 11:35:09;;;;;;;4.93;1.90;;;18.10;95.30;;;;;;5062921;28;20068;-68
2023/10/04 11:38:12;;;;;;;4.47;1.67;;;18.00;95.90;;;;;;5063189;28;20617;-68
2023/10/04 11:40:38;;;;;;;6.57;2.03;;;18.20;95.10;;;;;;5052769;28;20063;-68
2023/10/04 11:43:05;;;;;;;4.80;1.80;;;18.30;95.90;;;;;;5063371;28;20036;-68
2023/10/04 11:45:31;;;;;;;6.20;1.65;;;18.50;95.70;;;;;;5061003;28;20044;-67
2023/10/04 11:48:01;;;;;;;7.57;1.63;;;18.70;95.30;;;;;;5063318;28;20518;-68
2023/10/04 11:50:44;;;;;;;7.55;2.03;;;18.90;95.10;;;;;;5062536;28;20037;-67
2023/10/04 11:53:14;;;;;;;6.22;2.42;;;19.10;94.00;;;;;;5056147;28;20028;-68
2023/10/04 11:55:41;;;;;;;5.95;1.88;;;19.20;93.80;;;;;;5064216;28;20404;-68
2023/10/04 11:58:10;;;;;;;5.32;1.92;;;19.30;93.90;;;;;;5066502;28;20029;-68
2023/10/04 12:00:36;;;;;;;5.57;2.08;;;19.30;93.90;;;;;;5066020;28;20119;-68
2023/10/04 12:03:02;;;;;;;6.20;2.08;;;19.20;93.10;;;;;;5061111;28;20137;-66
2023/10/04 12:05:27;;;;;;;5.43;1.67;;;19.20;93.40;;;;;;5066935;28;20063;-67
2023/10/04 12:07:58;;;;;;;4.97;2.00;;;19.10;93.70;;;;;;5057808;28;20040;-68
2023/10/04 12:10:25;;;;;;;7.75;2.00;;;19.10;93.90;;;;;;5062254;28;20447;-68
2023/10/04 12:12:52;;;;;;;9.13;1.98;;;19.10;94.00;;;;;;5057879;28;20056;-68
2023/10/04 12:15:18;;;;;;;3.75;1.75;;;19.10;93.60;;;;;;5062797;28;20120;-68
2023/10/04 12:17:45;;;;;;;6.43;1.67;;;19.00;93.20;;;;;;5059603;28;20120;-67
2023/10/04 12:20:11;;;;;;;4.63;1.98;;;18.90;93.40;;;;;;5061849;28;20485;-68
2023/10/04 12:22:39;;;;;;;4.82;1.83;;;18.90;93.10;;;;;;5059635;28;20045;-68
2023/10/04 12:25:05;;;;;;;6.50;1.65;;;18.90;93.70;;;;;;5061328;28;20033;-69
2023/10/04 12:27:31;;;;;;;7.75;1.80;;;18.90;93.90;;;;;;5064306;28;20847;-67
2023/10/04 12:29:57;;;;;;;7.68;2.45;;;19.10;94.00;;;;;;5061526;28;20029;-68
2023/10/04 12:32:23;;;;;;;8.75;1.85;;;19.10;92.80;;;;;;5060809;28;20082;-68
2023/10/04 12:34:49;;;;;;;5.43;1.92;;;19.00;93.70;;;;;;5061112;28;20032;-68
2023/10/04 12:37:15;;;;;;;5.30;1.73;;;19.10;93.20;;;;;;5060199;28;20033;-68
2023/10/04 12:39:43;;;;;;;4.82;1.67;;;19.00;92.50;;;;;;5066336;28;20063;-68
2023/10/04 12:42:09;;;;;;;5.00;1.70;;;18.90;92.60;;;;;;5058781;28;20029;-67
2023/10/04 12:44:41;;;;;;;3.22;1.58;;;18.80;92.50;;;;;;5060643;28;20040;-67
2023/10/04 12:47:08;;;;;;;5.07;1.85;;;18.70;92.90;;;;;;5061653;28;20684;-66
2023/10/04 12:49:34;;;;;;;4.13;1.55;;;18.70;93.30;;;;;;5066264;28;20545;-68
2023/10/04 12:52:00;;;;;;;7.07;2.20;;;18.70;93.00;;;;;;5061765;28;20744;-67
2023/10/04 12:54:28;;;;;;;6.43;2.40;;;18.60;93.00;;;;;;5065327;28;20048;-67
2023/10/04 12:56:55;;;;;;;3.50;1.65;;;18.60;93.50;;;;;;5061767;28;20037;-67